Time;durP1;ratioP1;P1;durP2;ratioP2;P2;SDS_P1;SDS_P2;PMS_P1;PMS_P2;Temp;Humidity;BMP_temperature;BMP_pressure;BME280_temperature;BME280_humidity;BME280_pressure;Samples;Min_cycle;Max_cycle;Signal;HPM_P1;HPM_P2
2023/05/23 00:01:59;;;;;;;17.52;12.20;;;;;;;17.01;76.55;95918.38;5085158;28;20051;-74
2023/05/23 00:04:25;;;;;;;18.08;12.52;;;;;;;17.02;76.56;95917.22;5077289;28;20093;-74
2023/05/23 00:06:53;;;;;;;14.80;11.27;;;;;;;17.22;76.39;95918.69;5078434;28;20099;-74
2023/05/23 00:09:20;;;;;;;15.13;11.07;;;;;;;17.28;76.07;95925.47;5080672;28;20040;-74
2023/05/23 00:11:46;;;;;;;16.38;11.55;;;;;;;17.30;75.71;95927.84;5073717;28;20051;-74
2023/05/23 00:14:13;;;;;;;15.73;12.38;;;;;;;17.18;75.41;95917.88;5077327;28;20044;-74
2023/05/23 00:16:41;;;;;;;16.67;12.98;;;;;;;17.21;75.10;95914.34;5081971;28;20051;-74
2023/05/23 00:19:08;;;;;;;16.92;11.50;;;;;;;17.24;75.14;95921.88;5078808;28;20106;-74
2023/05/23 00:21:35;;;;;;;16.00;12.68;;;;;;;17.04;75.38;95920.41;5094837;28;20165;-74
2023/05/23 00:24:03;;;;;;;18.35;13.10;;;;;;;16.88;76.10;95918.59;5078053;28;20055;-76
2023/05/23 00:26:30;;;;;;;19.33;12.73;;;;;;;16.67;77.08;95923.72;5083613;28;20047;-74
2023/05/23 00:28:57;;;;;;;15.35;12.55;;;;;;;16.75;76.70;95925.44;5077290;28;20053;-74
2023/05/23 00:31:24;;;;;;;14.98;11.35;;;;;;;16.87;76.57;95924.47;5082983;28;20041;-74
2023/05/23 00:33:50;;;;;;;14.40;11.10;;;;;;;16.89;75.87;95919.38;5094186;28;20040;-74
2023/05/23 00:36:17;;;;;;;15.07;11.88;;;;;;;16.87;75.57;95917.00;5085528;28;20044;-74
2023/05/23 00:38:44;;;;;;;21.02;12.40;;;;;;;16.78;75.55;95915.69;5079401;28;20052;-75
2023/05/23 00:41:12;;;;;;;17.45;11.50;;;;;;;16.68;76.05;95922.56;5072287;28;20083;-74
2023/05/23 00:43:38;;;;;;;16.13;12.75;;;;;;;16.60;76.46;95926.34;5070972;28;20054;-74
2023/05/23 00:46:05;;;;;;;16.27;11.63;;;;;;;16.72;76.51;95923.44;5074238;28;20036;-74
2023/05/23 00:48:32;;;;;;;20.90;11.77;;;;;;;16.64;76.21;95918.94;5071175;28;20048;-74
2023/05/23 00:50:59;;;;;;;15.57;11.55;;;;;;;16.75;75.94;95919.94;5077184;28;20098;-74
2023/05/23 00:53:26;;;;;;;14.73;11.45;;;;;;;16.76;75.73;95916.06;5070328;28;20036;-74
2023/05/23 00:55:53;;;;;;;16.95;11.75;;;;;;;16.63;75.82;95920.13;5070428;28;20053;-74
2023/05/23 00:58:21;;;;;;;15.32;10.82;;;;;;;16.69;75.68;95915.88;5073014;28;20043;-74
2023/05/23 01:00:49;;;;;;;15.82;11.45;;;;;;;16.74;75.62;95918.34;5074847;28;20524;-74
2023/05/23 01:03:16;;;;;;;15.00;10.98;;;;;;;16.81;75.23;95923.16;5078631;28;20098;-74
2023/05/23 01:05:43;;;;;;;19.55;12.43;;;;;;;16.59;75.82;95927.50;5072438;28;20053;-74
2023/05/23 01:08:10;;;;;;;19.40;11.52;;;;;;;16.58;76.12;95931.41;5071900;28;20064;-74
2023/05/23 01:10:37;;;;;;;17.88;11.80;;;;;;;16.60;75.75;95934.59;5074263;28;20048;-74
2023/05/23 01:13:17;;;;;;;17.42;11.15;;;;;;;16.41;77.14;95928.00;5069875;28;20052;-74
2023/05/23 01:15:51;;;;;;;17.10;11.35;;;;;;;16.59;76.34;95933.00;5070762;28;20037;-74
2023/05/23 01:18:24;;;;;;;17.70;11.95;;;;;;;16.34;77.08;95933.38;5075318;28;20145;-74
2023/05/23 01:20:54;;;;;;;19.15;12.30;;;;;;;16.39;77.54;95930.31;5074119;28;20472;-74
2023/05/23 01:23:39;;;;;;;18.52;12.10;;;;;;;16.32;77.98;95943.91;5070365;28;20086;-74
2023/05/23 01:26:19;;;;;;;16.80;10.75;;;;;;;16.50;77.60;95944.25;5077496;28;20121;-74
2023/05/23 01:28:51;;;;;;;19.17;11.95;;;;;;;16.59;76.95;95935.75;5072208;28;20052;-73
2023/05/23 01:31:18;;;;;;;15.35;11.35;;;;;;;16.62;77.03;95944.06;5077824;28;20052;-74
2023/05/23 01:33:46;;;;;;;14.82;10.60;;;;;;;16.74;76.78;95940.34;5076113;28;20048;-74
2023/05/23 01:36:14;;;;;;;15.30;11.10;;;;;;;16.71;76.90;95943.84;5069151;28;20045;-74
2023/05/23 01:38:40;;;;;;;15.98;10.55;;;;;;;16.79;76.79;95942.00;5084779;28;20048;-74
2023/05/23 01:41:07;;;;;;;15.65;11.38;;;;;;;16.78;76.36;95940.41;5080696;28;20507;-74
2023/05/23 01:43:34;;;;;;;14.85;10.88;;;;;;;16.85;76.58;95935.81;5078847;28;20052;-74
2023/05/23 01:46:03;;;;;;;14.27;11.18;;;;;;;16.91;76.16;95942.63;5077647;28;20045;-73
2023/05/23 01:48:30;;;;;;;15.00;11.35;;;;;;;16.87;75.83;95944.50;5082179;28;20035;-74
2023/05/23 01:50:58;;;;;;;16.60;11.20;;;;;;;16.75;76.23;95944.69;5075651;28;20052;-74
2023/05/23 01:53:26;;;;;;;17.05;11.25;;;;;;;16.86;75.59;95953.09;5074165;28;20040;-73
2023/05/23 01:55:53;;;;;;;16.33;10.77;;;;;;;16.93;75.63;95953.25;5076106;28;20052;-74
2023/05/23 01:58:19;;;;;;;14.70;10.68;;;;;;;17.03;75.26;95949.06;5080404;28;20040;-73
2023/05/23 02:00:46;;;;;;;15.02;10.90;;;;;;;17.04;75.14;95964.41;5074564;28;20052;-74
2023/05/23 02:03:14;;;;;;;14.68;10.02;;;;;;;17.03;75.30;95957.31;5072686;28;20052;-74
2023/05/23 02:05:41;;;;;;;13.68;10.07;;;;;;;17.04;75.20;95961.66;5072947;28;20489;-74
2023/05/23 02:08:07;;;;;;;15.60;11.93;;;;;;;16.79;76.59;95958.50;5073113;28;20052;-73
2023/05/23 02:10:34;;;;;;;19.40;12.70;;;;;;;16.74;76.63;95967.84;5081950;28;20048;-74
2023/05/23 02:13:00;;;;;;;17.00;11.25;;;;;;;16.78;76.67;95962.41;5077797;28;20044;-73
2023/05/23 02:15:27;;;;;;;22.80;12.50;;;;;;;16.63;77.82;95964.09;5086100;28;20549;-74
2023/05/23 02:17:53;;;;;;;16.23;11.95;;;;;;;16.66;77.49;95963.38;5073389;28;20044;-74
2023/05/23 02:20:21;;;;;;;15.32;11.70;;;;;;;16.69;77.23;95965.38;5078625;28;20105;-75
2023/05/23 02:22:48;;;;;;;15.32;11.32;;;;;;;16.68;77.52;95969.28;5075945;28;20055;-74
2023/05/23 02:25:15;;;;;;;13.48;10.45;;;;;;;16.76;77.17;95971.03;5088116;28;20075;-73
2023/05/23 02:27:41;;;;;;;16.90;12.65;;;;;;;16.68;77.61;95972.03;5075030;28;20076;-74
2023/05/23 02:30:09;;;;;;;16.83;12.18;;;;;;;16.57;78.17;95973.81;5068612;28;20071;-74
2023/05/23 02:32:36;;;;;;;15.43;11.93;;;;;;;16.64;78.33;95968.44;5083006;28;20044;-74
2023/05/23 02:35:03;;;;;;;16.27;11.45;;;;;;;16.70;78.01;95966.97;5088846;28;20044;-74
2023/05/23 02:37:30;;;;;;;17.25;11.85;;;;;;;16.70;78.13;95966.97;5076268;28;20044;-73
2023/05/23 02:39:57;;;;;;;14.98;12.07;;;;;;;16.64;78.04;95960.97;5069773;28;20048;-74
2023/05/23 02:42:23;;;;;;;19.00;12.30;;;;;;;16.64;78.05;95962.94;5068951;28;20041;-74
2023/05/23 02:44:50;;;;;;;17.00;11.30;;;;;;;16.71;77.69;95974.09;5071112;28;20058;-74
2023/05/23 02:47:16;;;;;;;15.80;11.90;;;;;;;16.58;78.45;95975.41;5068531;28;20048;-73
2023/05/23 02:49:43;;;;;;;15.82;11.15;;;;;;;16.61;78.68;95969.19;5080399;28;20044;-73
2023/05/23 02:52:09;;;;;;;16.60;11.52;;;;;;;16.60;78.23;95973.06;5072002;28;20071;-74
2023/05/23 02:54:37;;;;;;;15.23;11.18;;;;;;;16.63;78.35;95969.59;5076737;28;20047;-74
2023/05/23 02:57:05;;;;;;;17.20;13.05;;;;;;;16.54;78.46;95963.53;5079620;28;20136;-74
2023/05/23 02:59:31;;;;;;;15.55;11.10;;;;;;;16.50;78.80;95973.69;5078539;28;20063;-73
2023/05/23 03:01:58;;;;;;;15.52;11.68;;;;;;;16.49;78.83;95977.56;5074137;28;20512;-74
2023/05/23 03:04:26;;;;;;;16.95;12.48;;;;;;;16.28;80.08;95972.47;5071990;28;20045;-73
2023/05/23 03:06:53;;;;;;;20.85;13.32;;;;;;;16.16;80.56;95973.44;5073619;28;20060;-73
2023/05/23 03:09:20;;;;;;;21.00;13.32;;;;;;;16.02;81.42;95970.41;5079878;28;20040;-74
2023/05/23 03:11:48;;;;;;;20.95;13.45;;;;;;;15.98;81.94;95980.56;5073864;28;20040;-73
2023/05/23 03:14:15;;;;;;;18.23;13.68;;;;;;;15.74;83.88;95982.41;5080356;28;20516;-74
2023/05/23 03:16:41;;;;;;;18.95;13.63;;;;;;;15.67;83.66;95986.97;5079667;28;20082;-73
2023/05/23 03:19:07;;;;;;;20.77;13.85;;;;;;;15.59;84.55;95984.03;5074021;28;20575;-73
2023/05/23 03:21:35;;;;;;;21.08;14.30;;;;;;;15.50;85.46;95988.13;5072578;28;20048;-74
2023/05/23 03:24:01;;;;;;;17.10;13.07;;;;;;;15.52;85.54;95992.09;5078411;28;20384;-73
2023/05/23 03:26:28;;;;;;;18.85;13.85;;;;;;;15.57;84.91;95988.28;5079749;28;20051;-73
2023/05/23 03:28:55;;;;;;;16.80;12.93;;;;;;;15.64;84.82;95981.03;5082527;28;20531;-73
2023/05/23 03:31:22;;;;;;;24.02;14.23;;;;;;;15.59;84.96;95983.22;5079950;28;20063;-74
2023/05/23 03:33:49;;;;;;;18.95;13.90;;;;;;;15.60;85.10;95984.81;5087185;28;20048;-73
2023/05/23 03:36:15;;;;;;;18.95;12.82;;;;;;;15.72;84.54;95971.00;5091695;28;20613;-74
2023/05/23 03:38:41;;;;;;;18.67;13.20;;;;;;;15.77;84.09;95976.22;5091652;28;20435;-73
2023/05/23 03:41:08;;;;;;;17.77;12.70;;;;;;;15.79;84.20;95978.59;5079352;28;20040;-73
2023/05/23 03:43:35;;;;;;;19.92;13.93;;;;;;;15.73;84.16;95980.81;5071997;28;20056;-73
2023/05/23 03:46:03;;;;;;;20.02;13.75;;;;;;;15.59;84.91;95985.97;5079101;28;20071;-73
2023/05/23 03:48:29;;;;;;;17.65;13.65;;;;;;;15.50;85.63;95988.91;5073864;28;20040;-73
2023/05/23 03:50:56;;;;;;;20.50;14.18;;;;;;;15.35;86.45;95987.81;5072299;28;20443;-73
2023/05/23 03:53:22;;;;;;;22.15;13.85;;;;;;;15.32;86.96;95977.56;5080273;28;20436;-73
2023/05/23 03:55:49;;;;;;;18.63;13.60;;;;;;;15.33;86.40;95987.38;5075538;28;20044;-73
2023/05/23 03:58:15;;;;;;;20.38;13.38;;;;;;;15.33;86.99;95987.38;5072814;28;20052;-73
2023/05/23 04:00:42;;;;;;;19.08;13.45;;;;;;;15.35;86.67;95989.78;5071716;28;20048;-73
2023/05/23 04:03:13;;;;;;;21.00;14.32;;;;;;;15.36;86.74;95992.16;5083032;28;20051;-74
2023/05/23 04:05:39;;;;;;;20.05;14.73;;;;;;;15.33;86.75;95990.09;5073012;28;20068;-73
2023/05/23 04:08:07;;;;;;;19.52;13.48;;;;;;;15.44;86.59;95995.84;5074813;28;20047;-73
2023/05/23 04:10:33;;;;;;;23.98;15.25;;;;;;;15.23;87.34;95996.16;5071541;28;20079;-73
2023/05/23 04:12:59;;;;;;;18.92;14.70;;;;;;;15.13;88.25;96000.22;5071356;28;20052;-73
2023/05/23 04:15:26;;;;;;;22.20;15.02;;;;;;;15.10;88.67;96002.91;5070494;28;20048;-75
2023/05/23 04:17:53;;;;;;;20.13;14.80;;;;;;;15.09;89.49;96001.31;5079488;28;20557;-73
2023/05/23 04:20:21;;;;;;;21.50;14.65;;;;;;;14.98;90.17;96005.72;5076439;28;20574;-74
2023/05/23 04:22:47;;;;;;;24.52;16.33;;;;;;;15.11;90.00;96009.97;5085913;28;20048;-73
2023/05/23 04:25:17;;;;;;;23.15;15.98;;;;;;;15.07;89.98;96009.09;5090713;28;20075;-73
2023/05/23 04:27:43;;;;;;;22.05;15.77;;;;;;;14.98;90.63;96013.94;5076651;28;20181;-74
2023/05/23 04:30:10;;;;;;;23.65;16.35;;;;;;;14.87;91.82;96016.44;5084418;28;20048;-73
2023/05/23 04:32:37;;;;;;;25.50;16.33;;;;;;;14.84;92.86;96023.44;5071846;28;20078;-74
2023/05/23 04:35:04;;;;;;;23.92;15.48;;;;;;;15.06;91.86;96023.94;5073965;28;20055;-73
2023/05/23 04:37:32;;;;;;;21.10;15.35;;;;;;;15.04;92.26;96026.25;5076600;28;20551;-73
2023/05/23 04:39:59;;;;;;;22.30;16.05;;;;;;;15.11;91.98;96031.91;5071884;28;20130;-73
2023/05/23 04:42:28;;;;;;;23.75;16.23;;;;;;;15.13;92.99;96024.91;5079215;28;20044;-73
2023/05/23 04:44:56;;;;;;;24.30;15.35;;;;;;;15.20;92.63;96034.47;5079926;28;20063;-74
2023/05/23 04:47:23;;;;;;;24.40;17.30;;;;;;;15.22;92.63;96038.44;5070961;28;20044;-74
2023/05/23 04:49:52;;;;;;;23.83;17.13;;;;;;;15.39;91.93;96035.31;5076763;28;20048;-74
2023/05/23 04:52:19;;;;;;;24.80;16.75;;;;;;;15.52;91.58;96046.19;5075027;28;20498;-73
2023/05/23 04:54:47;;;;;;;24.35;16.35;;;;;;;15.47;91.73;96032.75;5070509;28;20059;-73
2023/05/23 04:57:14;;;;;;;26.08;16.80;;;;;;;15.35;92.30;96031.72;5076567;28;20063;-73
2023/05/23 04:59:41;;;;;;;23.35;17.05;;;;;;;15.38;92.58;96036.47;5077351;28;20040;-76
2023/05/23 05:02:08;;;;;;;25.30;18.00;;;;;;;15.46;92.39;96036.66;5069885;28;20051;-76
2023/05/23 05:04:35;;;;;;;26.60;17.27;;;;;;;15.52;91.88;96032.47;5070278;28;20066;-74
2023/05/23 05:07:03;;;;;;;24.85;17.38;;;;;;;15.54;92.50;96035.66;5070327;28;20071;-73
2023/05/23 05:09:30;;;;;;;28.23;17.67;;;;;;;15.45;92.84;96040.53;5069763;28;20041;-75
2023/05/23 05:11:57;;;;;;;24.40;17.35;;;;;;;15.55;92.68;96038.03;5070376;28;20044;-74
2023/05/23 05:14:25;;;;;;;26.38;18.05;;;;;;;15.57;92.74;96043.19;5069033;28;20480;-73
2023/05/23 05:16:53;;;;;;;26.45;17.00;;;;;;;15.66;92.74;96038.31;5082740;28;20052;-74
2023/05/23 05:19:19;;;;;;;29.00;17.42;;;;;;;15.64;93.35;96043.38;5080628;28;20045;-74
2023/05/23 05:21:46;;;;;;;22.95;16.38;;;;;;;15.69;92.53;96040.34;5081109;28;20131;-74
2023/05/23 05:24:12;;;;;;;26.63;17.33;;;;;;;15.59;93.19;96040.88;5072065;28;20049;-74
2023/05/23 05:26:39;;;;;;;23.92;17.02;;;;;;;15.63;93.00;96036.28;5072936;28;20052;-73
2023/05/23 05:29:07;;;;;;;25.25;17.55;;;;;;;15.76;92.49;96050.66;5069779;28;20044;-74
2023/05/23 05:31:34;;;;;;;25.80;17.00;;;;;;;15.86;92.25;96042.66;5074187;28;20428;-76
2023/05/23 05:34:01;;;;;;;24.77;17.25;;;;;;;15.96;92.12;96046.00;5082490;28;20072;-76
2023/05/23 05:36:27;;;;;;;22.90;17.48;;;;;;;16.01;91.85;96040.22;5078906;28;20055;-76
2023/05/23 05:38:54;;;;;;;25.40;17.80;;;;;;;16.11;91.27;96050.66;5079992;28;20583;-74
2023/05/23 05:41:20;;;;;;;22.60;17.10;;;;;;;16.04;90.84;96067.78;5068942;28;20044;-74
2023/05/23 05:43:47;;;;;;;24.60;17.42;;;;;;;16.05;91.24;96061.13;5075442;28;20055;-74
2023/05/23 05:46:15;;;;;;;23.30;16.67;;;;;;;16.22;90.29;96051.66;5089134;28;20055;-74
2023/05/23 05:48:41;;;;;;;27.88;17.88;;;;;;;16.20;90.99;96064.97;5076526;28;20048;-75
2023/05/23 05:51:08;;;;;;;25.13;17.63;;;;;;;16.30;90.11;96069.09;5066040;28;20060;-75
2023/05/23 05:53:34;;;;;;;25.88;17.35;;;;;;;16.33;90.69;96058.16;5083833;28;20048;-75
2023/05/23 05:56:01;;;;;;;24.95;17.20;;;;;;;16.43;90.05;96057.56;5086843;28;20062;-75
2023/05/23 05:58:28;;;;;;;26.13;17.23;;;;;;;16.53;89.72;96056.19;5079324;28;20047;-74
2023/05/23 06:00:55;;;;;;;24.20;17.88;;;;;;;16.62;89.63;96058.72;5075392;28;20052;-74
2023/05/23 06:03:23;;;;;;;24.15;16.70;;;;;;;16.72;88.78;96058.16;5087281;28;21650;-74
2023/05/23 06:05:49;;;;;;;27.67;18.25;;;;;;;16.70;88.96;96060.44;5089292;28;20056;-75
2023/05/23 06:08:16;;;;;;;27.33;17.63;;;;;;;16.73;89.11;96059.75;5089399;28;20044;-75
2023/05/23 06:10:42;;;;;;;27.17;17.48;;;;;;;16.82;88.29;96074.06;5089752;28;20044;-74
2023/05/23 06:13:09;;;;;;;25.80;18.38;;;;;;;16.88;89.14;96061.59;5073247;28;20041;-74
2023/05/23 06:15:35;;;;;;;23.48;17.42;;;;;;;16.96;88.30;96062.50;5070325;28;20049;-75
2023/05/23 06:18:01;;;;;;;26.88;18.40;;;;;;;17.03;87.29;96061.84;5069513;28;20074;-75
2023/05/23 06:20:29;;;;;;;24.15;17.15;;;;;;;17.11;88.40;96071.81;5075441;28;20048;-75
2023/05/23 06:22:56;;;;;;;27.05;17.13;;;;;;;17.11;86.96;96063.56;5070368;28;20040;-75
2023/05/23 06:25:22;;;;;;;26.48;18.10;;;;;;;17.00;86.82;96074.38;5077162;28;20051;-75
2023/05/23 06:27:49;;;;;;;35.90;19.23;;;;;;;17.01;86.68;96069.66;5080584;28;20544;-76
2023/05/23 06:30:16;;;;;;;28.23;19.00;;;;;;;17.04;87.17;96069.72;5079111;28;20036;-75
2023/05/23 06:32:42;;;;;;;25.75;17.33;;;;;;;17.10;87.32;96071.00;5080974;28;20048;-76
2023/05/23 06:35:09;;;;;;;25.40;17.60;;;;;;;17.17;86.59;96073.09;5084409;28;20055;-75
2023/05/23 06:37:39;;;;;;;26.33;18.27;;;;;;;17.12;89.05;96076.13;5074394;28;20052;-75
2023/05/23 06:40:08;;;;;;;28.52;19.95;;;;;;;16.90;89.93;96075.75;5088356;28;20321;-75
2023/05/23 06:42:34;;;;;;;27.90;19.50;;;;;;;16.98;89.38;96078.66;5093824;28;20070;-75
2023/05/23 06:45:01;;;;;;;24.90;18.38;;;;;;;17.11;88.73;96080.06;5079406;28;20102;-75
2023/05/23 06:47:27;;;;;;;30.30;19.20;;;;;;;17.17;87.96;96078.59;5078910;28;20055;-75
2023/05/23 06:49:54;;;;;;;27.73;19.63;;;;;;;17.05;89.19;96087.81;5073964;28;20041;-75
2023/05/23 06:52:20;;;;;;;28.20;19.48;;;;;;;17.04;88.83;96079.94;5089802;28;20044;-77
2023/05/23 06:54:48;;;;;;;31.33;19.77;;;;;;;17.15;89.63;96072.66;5073767;28;20048;-76
2023/05/23 06:57:15;;;;;;;33.47;19.77;;;;;;;17.19;89.50;96073.53;5073542;28;20045;-75
2023/05/23 06:59:41;;;;;;;30.45;19.67;;;;;;;17.41;90.56;96075.47;5082385;28;20412;-75
2023/05/23 07:02:08;;;;;;;30.10;18.48;;;;;;;17.60;88.22;96082.84;5085816;28;20041;-75
2023/05/23 07:04:34;;;;;;;25.92;18.98;;;;;;;17.70;85.60;96078.66;5073328;28;20040;-75
2023/05/23 07:07:01;;;;;;;26.67;18.85;;;;;;;17.78;87.26;96074.88;5073982;28;20055;-75
2023/05/23 07:09:27;;;;;;;27.42;18.30;;;;;;;17.96;86.66;96080.66;5072934;28;20044;-75
2023/05/23 07:11:55;;;;;;;28.15;18.40;;;;;;;17.93;82.92;96082.19;5073862;28;20048;-75
2023/05/23 07:14:21;;;;;;;26.92;17.70;;;;;;;17.88;84.46;96090.75;5073240;28;20508;-76
2023/05/23 07:16:48;;;;;;;24.55;17.20;;;;;;;17.76;83.42;96093.75;5078164;28;20032;-76
2023/05/23 07:19:14;;;;;;;25.95;17.98;;;;;;;17.51;85.38;96103.53;5111925;27;20054;-75
2023/05/23 07:21:41;;;;;;;25.23;18.30;;;;;;;17.47;86.10;96096.00;5114461;28;20051;-75
2023/05/23 07:24:07;;;;;;;25.90;18.55;;;;;;;17.71;86.08;96097.56;5093946;28;20037;-75
2023/05/23 07:26:34;;;;;;;26.10;18.30;;;;;;;17.92;85.02;96102.63;5091146;28;21598;-76
2023/05/23 07:29:02;;;;;;;26.02;18.95;;;;;;;18.14;84.67;96091.91;5088632;28;20047;-75
2023/05/23 07:31:29;;;;;;;25.77;17.50;;;;;;;18.18;84.65;96103.78;5095846;28;20044;-76
2023/05/23 07:33:55;;;;;;;24.73;17.48;;;;;;;18.16;84.78;96092.31;5114861;28;20050;-76
2023/05/23 07:36:22;;;;;;;27.70;18.75;;;;;;;18.29;83.96;96095.66;5113467;27;20051;-75
2023/05/23 07:38:48;;;;;;;29.10;19.63;;;;;;;18.29;84.21;96093.69;5093981;28;20530;-75
2023/05/23 07:41:15;;;;;;;28.33;19.27;;;;;;;18.23;84.97;96087.72;5093972;28;20048;-74
2023/05/23 07:43:41;;;;;;;26.40;18.92;;;;;;;18.42;84.88;96081.22;5098151;28;20146;-75
2023/05/23 07:46:09;;;;;;;20.45;17.23;;;;;;;18.56;82.11;96093.63;5106966;28;20054;-75
2023/05/23 07:48:36;;;;;;;29.73;18.75;;;;;;;18.78;84.02;96092.72;5097867;28;20067;-75
2023/05/23 07:51:02;;;;;;;27.83;19.23;;;;;;;18.88;84.41;96089.28;5095804;28;20044;-75
2023/05/23 07:53:29;;;;;;;29.95;17.83;;;;;;;19.09;83.95;96085.16;5105091;28;20047;-75
2023/05/23 07:55:56;;;;;;;22.77;17.70;;;;;;;19.10;78.89;96089.47;5114781;28;20598;-75
2023/05/23 07:58:23;;;;;;;23.55;17.98;;;;;;;19.08;78.94;96095.41;5106432;28;20055;-75
2023/05/23 08:00:50;;;;;;;25.45;18.50;;;;;;;19.09;79.86;96102.50;5096896;28;20495;-74
2023/05/23 08:03:18;;;;;;;24.08;16.73;;;;;;;19.04;81.73;96095.34;5096372;28;20032;-77
2023/05/23 08:05:45;;;;;;;22.15;15.75;;;;;;;18.99;78.07;96098.44;5106187;28;20043;-75
2023/05/23 08:08:11;;;;;;;22.77;15.48;;;;;;;19.06;76.83;96095.00;5095594;28;20126;-75
2023/05/23 08:10:38;;;;;;;26.40;16.27;;;;;;;19.24;79.24;96100.66;5116628;27;20039;-75
2023/05/23 08:13:05;;;;;;;19.17;15.55;;;;;;;19.56;80.28;96093.44;5098060;28;20502;-75
2023/05/23 08:15:32;;;;;;;21.30;15.57;;;;;;;19.76;76.05;96102.31;5099265;28;20075;-75
2023/05/23 08:17:59;;;;;;;22.90;15.55;;;;;;;19.81;73.51;96104.72;5100086;28;20050;-76
2023/05/23 08:20:29;;;;;;;21.40;15.70;;;;;;;19.97;73.68;96107.19;5102064;28;20122;-76
2023/05/23 08:22:57;;;;;;;22.42;15.18;;;;;;;20.16;73.14;96102.59;5103101;28;20046;-75
2023/05/23 08:25:24;;;;;;;21.83;16.05;;;;;;;20.20;74.38;96103.38;5097576;28;20051;-76
2023/05/23 08:27:50;;;;;;;19.95;16.00;;;;;;;19.34;74.97;96105.50;5103198;28;20050;-76
2023/05/23 08:30:17;;;;;;;21.20;16.50;;;;;;;19.48;76.85;96107.59;5112037;28;20655;-75
2023/05/23 08:32:43;;;;;;;21.35;15.70;;;;;;;19.72;74.58;96106.22;5084037;28;20047;-75
2023/05/23 08:35:10;;;;;;;26.65;16.55;;;;;;;19.96;77.71;96113.91;5091235;28;20044;-76
2023/05/23 08:37:38;;;;;;;23.35;16.60;;;;;;;20.05;73.76;96119.91;5094586;28;20047;-75
2023/05/23 08:40:10;;;;;;;24.02;16.42;;;;;;;19.74;73.31;96123.22;5097161;28;20094;-76
2023/05/23 08:42:37;;;;;;;24.15;16.88;;;;;;;19.16;74.96;96119.16;5097843;28;20059;-76
2023/05/23 08:45:04;;;;;;;22.67;16.50;;;;;;;19.19;76.06;96117.56;5098228;28;20043;-75
2023/05/23 08:47:34;;;;;;;22.35;16.90;;;;;;;19.10;75.62;96119.84;5092954;28;20048;-77
2023/05/23 08:50:02;;;;;;;23.77;16.85;;;;;;;19.13;76.99;96130.13;5096523;28;20422;-76
2023/05/23 08:52:33;;;;;;;23.92;17.23;;;;;;;19.17;76.92;96128.22;5090825;28;20067;-76
2023/05/23 08:55:01;;;;;;;24.35;17.13;;;;;;;19.47;77.73;96134.44;5091147;28;20517;-76
2023/05/23 08:57:29;;;;;;;23.65;17.58;;;;;;;19.44;73.08;96135.19;5090409;28;20060;-75
2023/05/23 08:59:56;;;;;;;23.02;17.13;;;;;;;19.48;76.52;96132.47;5090889;28;20048;-74
2023/05/23 09:02:22;;;;;;;20.30;16.13;;;;;;;19.51;75.79;96140.75;5089989;28;20048;-75
2023/05/23 09:04:49;;;;;;;25.13;17.77;;;;;;;19.45;75.63;96135.97;5090516;28;20040;-75
2023/05/23 09:07:16;;;;;;;21.98;16.00;;;;;;;19.52;75.96;96139.59;5090081;28;20040;-76
2023/05/23 09:09:42;;;;;;;24.38;17.30;;;;;;;19.59;77.87;96138.06;5090218;28;20507;-75
2023/05/23 09:12:12;;;;;;;25.80;17.58;;;;;;;19.75;75.54;96133.88;5090414;28;20059;-76
2023/05/23 09:14:40;;;;;;;26.23;17.13;;;;;;;20.03;74.50;96133.28;5090544;28;20047;-75
2023/05/23 09:17:06;;;;;;;25.10;16.98;;;;;;;19.95;71.38;96137.19;5089892;28;20048;-75
2023/05/23 09:19:33;;;;;;;23.88;16.58;;;;;;;19.80;73.53;96138.28;5090923;28;20048;-75
2023/05/23 09:22:02;;;;;;;26.08;17.45;;;;;;;19.75;71.94;96133.09;5090519;28;20043;-75
2023/05/23 09:24:34;;;;;;;21.95;17.05;;;;;;;19.80;73.58;96141.03;5090544;28;20032;-75
2023/05/23 09:27:02;;;;;;;25.38;16.75;;;;;;;19.53;72.25;96132.91;5090252;28;20115;-78
2023/05/23 09:29:30;;;;;;;24.30;16.20;;;;;;;19.51;74.42;96140.75;5090218;28;20700;-74
2023/05/23 09:32:00;;;;;;;25.58;17.52;;;;;;;19.39;74.64;96138.28;5090181;28;20040;-76
2023/05/23 09:34:27;;;;;;;24.90;17.92;;;;;;;19.39;74.86;96140.25;5089942;28;20032;-76
2023/05/23 09:36:55;;;;;;;24.35;17.83;;;;;;;19.02;76.66;96136.34;5089934;28;20506;-75
2023/05/23 09:39:22;;;;;;;30.23;16.75;;;;;;;19.23;73.01;96143.25;5089362;28;20052;-76
2023/05/23 09:41:49;;;;;;;22.38;15.95;;;;;;;19.02;75.79;96152.91;5090267;28;20044;-78
2023/05/23 09:44:23;;;;;;;25.77;17.02;;;;;;;19.00;75.85;96144.22;5089351;28;20051;-75
2023/05/23 09:46:52;;;;;;;25.42;17.65;;;;;;;19.18;75.27;96141.63;5089626;28;20407;-75
2023/05/23 09:49:21;;;;;;;23.83;17.90;;;;;;;19.28;75.30;96148.44;5089231;28;20040;-75
2023/05/23 09:51:57;;;;;;;21.92;17.10;;;;;;;19.39;73.94;96146.56;5102024;28;20047;-75
2023/05/23 09:54:24;;;;;;;23.70;17.27;;;;;;;19.32;75.19;96143.75;5109902;28;20051;-75
2023/05/23 09:56:54;;;;;;;23.42;17.17;;;;;;;19.16;76.41;96146.75;5109619;28;20047;-75
2023/05/23 09:59:23;;;;;;;25.15;17.42;;;;;;;19.37;75.39;96153.63;5086248;28;20044;-75
2023/05/23 10:01:56;;;;;;;25.10;17.58;;;;;;;19.26;74.79;96145.25;5089299;28;20044;-75
2023/05/23 10:04:24;;;;;;;24.73;18.02;;;;;;;19.34;76.72;96143.34;5097378;28;20039;-75
2023/05/23 10:06:57;;;;;;;26.73;16.85;;;;;;;19.59;75.67;96143.59;5105372;28;20055;-75
2023/05/23 10:09:26;;;;;;;24.52;16.95;;;;;;;19.47;75.58;96139.94;5089204;28;20050;-75
2023/05/23 10:12:45;;;;;;;20.70;15.98;;;;;;;19.53;74.25;96138.41;5089584;28;20633;-77
2023/05/23 10:15:15;;;;;;;24.25;16.67;;;;;;;19.47;73.86;96142.72;5089670;28;20044;-76
2023/05/23 10:18:11;;;;;;;23.83;16.40;;;;;;;19.69;73.18;96134.63;5105919;28;20496;-75
2023/05/23 10:20:39;;;;;;;20.67;16.67;;;;;;;19.89;73.00;96138.75;5099647;28;20067;-74
2023/05/23 10:23:06;;;;;;;24.00;15.73;;;;;;;20.06;73.55;96137.28;5089572;28;20036;-78
2023/05/23 10:25:35;;;;;;;21.25;15.80;;;;;;;20.42;70.06;96137.50;5089965;28;20052;-75
2023/05/23 10:28:03;;;;;;;23.55;16.23;;;;;;;20.26;69.39;96137.81;5094186;28;20043;-78
2023/05/23 10:30:29;;;;;;;22.25;15.13;;;;;;;20.15;69.60;96134.16;5090161;28;20492;-77
2023/05/23 10:32:58;;;;;;;21.40;15.00;;;;;;;19.70;71.85;96131.47;5089616;28;20044;-77
2023/05/23 10:35:42;;;;;;;23.20;14.25;;;;;;;19.65;71.02;96133.81;5088373;28;20514;-75
2023/05/23 10:38:17;;;;;;;18.05;13.63;;;;;;;19.99;70.76;96126.97;5083921;28;20040;-76
2023/05/23 10:40:54;;;;;;;21.55;15.55;;;;;;;20.06;71.27;96126.22;5088898;28;20051;-76
2023/05/23 10:43:27;;;;;;;18.05;14.32;;;;;;;20.26;67.71;96126.75;5088408;28;20491;-76
2023/05/23 10:45:53;;;;;;;23.33;15.90;;;;;;;20.04;69.79;96128.56;5088898;28;20431;-76
2023/05/23 10:48:23;;;;;;;20.85;13.82;;;;;;;20.11;68.34;96133.34;5089114;28;20040;-76
2023/05/23 10:51:05;;;;;;;23.52;14.75;;;;;;;20.16;67.70;96125.50;5110107;28;20040;-76
2023/05/23 10:53:34;;;;;;;18.85;14.95;;;;;;;20.21;70.63;96121.56;5091080;28;20689;-76
2023/05/23 10:56:01;;;;;;;18.65;13.90;;;;;;;20.52;72.29;96120.97;5089387;28;20503;-75
2023/05/23 10:58:30;;;;;;;19.50;14.18;;;;;;;20.66;66.20;96120.22;5089041;28;20050;-75
2023/05/23 11:01:00;;;;;;;19.50;14.38;;;;;;;20.79;64.54;96124.25;5082174;28;20044;-75
2023/05/23 11:03:37;;;;;;;22.77;13.02;;;;;;;20.96;63.22;96122.72;5085859;28;20408;-76
2023/05/23 11:06:04;;;;;;;17.42;13.07;;;;;;;21.07;65.36;96109.69;5088620;28;20407;-75
2023/05/23 11:08:38;;;;;;;17.30;13.30;;;;;;;21.13;69.53;96109.31;5088910;28;20051;-75
2023/05/23 11:11:05;;;;;;;16.67;12.52;;;;;;;20.89;65.88;96116.38;5088669;28;20503;-76
2023/05/23 11:13:55;;;;;;;21.50;12.60;;;;;;;21.03;64.63;96100.56;5091018;28;20052;-75
2023/05/23 11:16:26;;;;;;;16.60;12.00;;;;;;;21.17;68.00;96107.34;5091933;28;20078;-76
2023/05/23 11:19:13;;;;;;;15.40;11.20;;;;;;;21.35;61.38;96100.69;5092149;28;20633;-76
2023/05/23 11:21:40;;;;;;;15.57;11.50;;;;;;;21.31;64.41;96088.00;5075810;28;20054;-76